Time;durP1;ratioP1;P1;durP2;ratioP2;P2;SDS_P1;SDS_P2;PMS_P1;PMS_P2;Temp;Humidity;BMP_temperature;BMP_pressure;BME280_temperature;BME280_humidity;BME280_pressure;Samples;Min_cycle;Max_cycle;Signal;HPM_P1;HPM_P2
2024/01/04 00:00:25;;;;;;;3.08;0.90;;;;;;;6.36;100.00;98741.59;5013436;28;20059;-74
2024/01/04 00:02:51;;;;;;;3.22;0.90;;;;;;;6.35;100.00;98743.47;5031654;28;20032;-73
2024/01/04 00:05:18;;;;;;;2.75;1.25;;;;;;;6.31;100.00;98752.34;5007329;28;20037;-74
2024/01/04 00:07:44;;;;;;;;;;;;;;;6.26;100.00;98750.53;5003969;28;20386;-75
2024/01/04 00:10:09;;;;;;;2.45;1.20;;;;;;;6.23;100.00;98749.25;5022284;28;19925;-73
2024/01/04 00:12:35;;;;;;;3.80;0.90;;;;;;;6.22;100.00;98762.81;5014737;28;20869;-74
2024/01/04 00:15:03;;;;;;;3.03;0.70;;;;;;;6.16;100.00;98751.47;5009925;28;20044;-75
2024/01/04 00:17:30;;;;;;;3.13;0.77;;;;;;;6.10;100.00;98759.84;5030483;28;20037;-74
2024/01/04 00:19:56;;;;;;;2.85;0.80;;;;;;;6.04;100.00;98763.63;5031593;28;20494;-73
2024/01/04 00:22:22;;;;;;;3.15;1.33;;;;;;;5.97;100.00;98761.34;5007047;28;20119;-74
2024/01/04 00:24:48;;;;;;;3.63;0.95;;;;;;;5.95;100.00;98769.56;5028834;28;20025;-73
2024/01/04 00:27:14;;;;;;;2.40;1.10;;;;;;;5.91;100.00;98767.78;5005539;28;20418;-75
2024/01/04 00:29:42;;;;;;;3.08;1.00;;;;;;;5.88;100.00;98776.28;4983494;28;20171;-72
2024/01/04 00:32:09;;;;;;;3.08;1.17;;;;;;;5.83;100.00;98781.69;4976017;28;20030;-74
2024/01/04 00:34:34;;;;;;;4.78;1.13;;;;;;;5.77;100.00;98788.16;4997355;28;20124;-74
2024/01/04 00:37:03;;;;;;;6.22;1.13;;;;;;;5.67;100.00;98783.72;5006460;28;20041;-73
2024/01/04 00:39:30;;;;;;;3.90;1.10;;;;;;;5.60;100.00;98794.69;5002309;28;20698;-73
2024/01/04 00:41:57;;;;;;;3.03;0.75;;;;;;;5.56;100.00;98788.41;4987734;28;20546;-73
2024/01/04 00:44:24;;;;;;;2.47;1.10;;;;;;;5.51;100.00;98798.28;5020641;28;20509;-79
2024/01/04 00:46:51;;;;;;;2.65;0.75;;;;;;;5.47;100.00;98811.31;4978568;28;20029;-76
2024/01/04 00:49:18;;;;;;;2.13;1.00;;;;;;;5.39;100.00;98810.06;4992524;28;20095;-76
2024/01/04 00:51:44;;;;;;;1.52;0.70;;;;;;;5.34;100.00;98814.63;5022599;28;20064;-79
2024/01/04 00:54:10;;;;;;;4.05;1.30;;;;;;;5.29;100.00;98815.50;4974761;28;20123;-79
2024/01/04 00:56:36;;;;;;;1.75;0.50;;;;;;;5.26;100.00;98815.25;5007178;28;20037;-78
2024/01/04 00:59:03;;;;;;;2.35;0.70;;;;;;;5.27;100.00;98811.53;5003283;28;20029;-79
2024/01/04 01:01:33;;;;;;;3.30;0.63;;;;;;;5.25;100.00;98808.38;5011494;28;20037;-76
2024/01/04 01:03:59;;;;;;;3.03;0.80;;;;;;;5.20;100.00;98812.66;4993088;28;20384;-77
2024/01/04 01:06:25;;;;;;;3.17;1.17;;;;;;;5.18;100.00;98812.16;5014891;28;20043;-75
2024/01/04 01:08:51;;;;;;;1.60;0.60;;;;;;;5.17;100.00;98821.19;4998359;28;20029;-75
2024/01/04 01:11:16;;;;;;;3.25;1.08;;;;;;;5.14;100.00;98816.44;5000972;28;20037;-77
2024/01/04 01:13:42;;;;;;;2.60;0.80;;;;;;;5.14;100.00;98827.03;4988842;28;20072;-76
2024/01/04 01:16:11;;;;;;;2.65;0.75;;;;;;;5.11;100.00;98824.16;4976397;28;20045;-77
2024/01/04 01:18:40;;;;;;;3.78;0.90;;;;;;;5.05;100.00;98825.28;4989686;28;20115;-74
2024/01/04 01:21:05;;;;;;;3.47;1.00;;;;;;;5.01;100.00;98829.56;5003793;28;20526;-74
2024/01/04 01:23:31;;;;;;;3.05;0.63;;;;;;;5.02;100.00;98825.84;4989442;28;20585;-73
2024/01/04 01:25:57;;;;;;;1.60;0.75;;;;;;;5.04;100.00;98836.97;5002655;28;20042;-75
2024/01/04 01:28:23;;;;;;;2.15;0.70;;;;;;;5.01;100.00;98838.31;5020211;28;20136;-75
2024/01/04 01:30:50;;;;;;;2.45;0.85;;;;;;;4.99;100.00;98844.97;4987774;28;20143;-75
2024/01/04 01:33:16;;;;;;;2.45;0.98;;;;;;;4.95;100.00;98849.28;5006079;28;20045;-73
2024/01/04 01:35:42;;;;;;;5.93;0.80;;;;;;;4.97;100.00;98855.06;4990896;28;20041;-74
2024/01/04 01:38:09;;;;;;;3.10;0.60;;;;;;;4.94;100.00;98861.72;4986580;28;20029;-74
2024/01/04 01:40:34;;;;;;;1.50;0.70;;;;;;;4.92;100.00;98855.91;5002717;28;20060;-73
2024/01/04 01:43:00;;;;;;;2.15;0.65;;;;;;;4.89;100.00;98856.47;4988131;28;20485;-74
2024/01/04 01:45:25;;;;;;;1.90;1.02;;;;;;;4.89;100.00;98859.13;5018209;28;20533;-78
2024/01/04 01:47:51;;;;;;;1.30;0.60;;;;;;;4.87;100.00;98869.19;5008789;28;20040;-74
2024/01/04 01:50:20;;;;;;;3.75;1.17;;;;;;;4.86;100.00;98876.38;4987108;28;20834;-75
2024/01/04 01:52:46;;;;;;;4.80;0.70;;;;;;;4.84;100.00;98869.75;5013834;28;20036;-76
2024/01/04 01:55:14;;;;;;;1.10;0.63;;;;;;;4.84;100.00;98867.13;5010552;28;20041;-78
2024/01/04 01:57:41;;;;;;;1.17;0.55;;;;;;;4.81;100.00;98871.13;5022126;28;20524;-78
2024/01/04 02:00:09;;;;;;;1.60;0.57;;;;;;;4.81;100.00;98883.56;4986653;28;20049;-78
2024/01/04 02:02:38;;;;;;;1.92;0.60;;;;;;;4.83;100.00;98887.53;5021715;28;20033;-79
2024/01/04 02:05:04;;;;;;;1.45;0.70;;;;;;;4.80;100.00;98881.97;4997260;28;20031;-74
2024/01/04 02:07:30;;;;;;;2.10;1.10;;;;;;;4.79;100.00;98877.75;5007938;28;20144;-74
2024/01/04 02:09:58;;;;;;;2.33;0.50;;;;;;;4.78;100.00;98889.44;4986180;28;20033;-77
2024/01/04 02:12:25;;;;;;;1.70;0.73;;;;;;;4.78;100.00;98902.69;4988631;28;20041;-77
2024/01/04 02:14:54;;;;;;;2.85;0.60;;;;;;;4.76;100.00;98907.50;5000128;28;20117;-75
2024/01/04 02:17:21;;;;;;;1.33;0.82;;;;;;;4.69;100.00;98914.97;4969313;28;20125;-76
2024/01/04 02:19:47;;;;;;;2.60;0.80;;;;;;;4.65;100.00;98914.69;4979614;28;20047;-75
2024/01/04 02:22:17;;;;;;;3.45;0.70;;;;;;;4.59;100.00;98918.44;5003832;28;20423;-75
2024/01/04 02:24:44;;;;;;;2.50;0.73;;;;;;;4.57;100.00;98926.69;4988869;28;20030;-74
2024/01/04 02:27:10;;;;;;;3.42;0.60;;;;;;;4.55;100.00;98934.13;5000465;28;20038;-74
2024/01/04 02:29:36;;;;;;;2.03;0.60;;;;;;;4.51;100.00;98933.09;5006086;28;20041;-75
2024/01/04 02:32:02;;;;;;;1.13;0.70;;;;;;;4.50;100.00;98936.81;5004845;28;20037;-75
2024/01/04 02:34:29;;;;;;;1.50;1.17;;;;;;;4.44;100.00;98935.25;5017872;28;20422;-74
2024/01/04 02:36:55;;;;;;;1.33;0.50;;;;;;;4.34;100.00;98943.25;4970462;28;20034;-75
2024/01/04 02:39:21;;;;;;;3.78;1.10;;;;;;;4.28;100.00;98933.75;5000201;28;20030;-76
2024/01/04 02:41:47;;;;;;;1.48;0.60;;;;;;;4.25;100.00;98935.06;5003430;28;20041;-75
2024/01/04 02:44:13;;;;;;;1.17;0.45;;;;;;;4.25;100.00;98950.16;4998590;28;20075;-75
2024/01/04 02:46:39;;;;;;;2.22;0.68;;;;;;;4.23;100.00;98957.59;5016261;28;20068;-74
2024/01/04 02:49:05;;;;;;;2.90;0.75;;;;;;;4.20;100.00;98952.81;4974582;28;20071;-74
2024/01/04 02:51:30;;;;;;;3.88;1.10;;;;;;;4.17;100.00;98956.03;5023164;28;20120;-73
2024/01/04 02:53:56;;;;;;;1.27;0.70;;;;;;;4.16;100.00;98967.69;5007999;28;20068;-75
2024/01/04 02:56:23;;;;;;;1.30;0.82;;;;;;;4.15;100.00;98961.59;4999207;28;20096;-74
2024/01/04 02:58:49;;;;;;;1.63;0.50;;;;;;;4.13;100.00;98966.38;5007657;28;20048;-75
2024/01/04 03:01:19;;;;;;;2.38;0.90;;;;;;;4.07;100.00;98965.63;5004711;28;20077;-73
2024/01/04 03:03:48;;;;;;;1.67;0.60;;;;;;;3.99;100.00;98958.19;5013811;28;20704;-71
2024/01/04 03:06:13;;;;;;;2.95;0.80;;;;;;;3.94;100.00;98960.88;5002209;28;20104;-74
2024/01/04 03:08:40;;;;;;;1.40;0.70;;;;;;;3.96;100.00;98968.56;5005371;28;20510;-73
2024/01/04 03:11:06;;;;;;;2.78;0.88;;;;;;;3.94;100.00;98979.41;4982298;28;20044;-74
2024/01/04 03:13:32;;;;;;;4.68;1.10;;;;;;;3.91;100.00;98977.28;4992324;28;20042;-73
2024/01/04 03:15:57;;;;;;;2.25;0.70;;;;;;;3.91;100.00;98977.28;4989565;28;20033;-73
2024/01/04 03:18:23;;;;;;;2.53;1.05;;;;;;;3.92;100.00;98986.81;4986980;28;20034;-74
2024/01/04 03:20:49;;;;;;;2.20;0.85;;;;;;;3.92;100.00;98993.97;5006883;28;20510;-74
2024/01/04 03:23:14;;;;;;;4.05;0.90;;;;;;;3.88;100.00;98983.13;5025415;28;20124;-72
2024/01/04 03:25:40;;;;;;;2.53;0.80;;;;;;;3.90;100.00;98988.16;4989493;28;20033;-73
2024/01/04 03:28:06;;;;;;;2.70;0.90;;;;;;;3.90;100.00;98988.94;5003014;28;20044;-75
2024/01/04 03:30:32;;;;;;;2.90;1.10;;;;;;;3.87;100.00;99009.91;5020487;28;20041;-75
2024/01/04 03:32:57;;;;;;;2.40;0.80;;;;;;;3.86;100.00;99006.41;4992483;28;20037;-74
2024/01/04 03:35:23;;;;;;;1.73;1.25;;;;;;;3.86;100.00;99000.34;5003098;28;20723;-76
2024/01/04 03:37:49;;;;;;;3.35;1.10;;;;;;;3.79;100.00;99004.09;5023046;28;20083;-74
2024/01/04 03:40:15;;;;;;;2.40;0.80;;;;;;;3.74;100.00;98980.25;5018800;28;20589;-76
2024/01/04 03:42:41;;;;;;;1.42;0.60;;;;;;;3.73;100.00;99012.28;5024243;28;20044;-74
2024/01/04 03:45:07;;;;;;;1.80;0.60;;;;;;;3.73;100.00;99022.88;4984090;28;20038;-74
2024/01/04 03:47:32;;;;;;;2.65;1.08;;;;;;;3.66;100.00;99022.34;5025990;28;20118;-74
2024/01/04 03:49:59;;;;;;;1.98;0.70;;;;;;;3.61;100.00;99027.66;5012065;28;20116;-73
2024/01/04 03:52:24;;;;;;;2.30;1.20;;;;;;;3.60;100.00;99031.38;5023973;28;20064;-74
2024/01/04 03:54:50;;;;;;;3.90;0.98;;;;;;;3.59;100.00;99024.47;4995159;28;20037;-73
2024/01/04 03:57:15;;;;;;;3.70;0.80;;;;;;;3.59;100.00;99038.50;5028733;28;20041;-74
2024/01/04 03:59:42;;;;;;;1.33;0.65;;;;;;;3.58;100.00;99033.47;4991786;28;20043;-73
2024/01/04 04:02:08;;;;;;;2.45;0.80;;;;;;;3.55;100.00;99030.28;4986112;28;20041;-73
2024/01/04 04:04:34;;;;;;;2.05;0.98;;;;;;;3.55;100.00;99035.59;4991993;28;20085;-74
2024/01/04 04:06:59;;;;;;;2.03;0.60;;;;;;;3.49;100.00;99047.22;4995642;28;20037;-74
2024/01/04 04:09:25;;;;;;;2.33;0.80;;;;;;;3.43;100.00;99042.19;5002865;28;20076;-73
2024/01/04 04:11:51;;;;;;;0.85;0.55;;;;;;;3.40;100.00;99055.97;5009844;28;20608;-75
2024/01/04 04:14:17;;;;;;;2.20;0.80;;;;;;;3.35;100.00;99048.00;5004634;28;20132;-74
2024/01/04 04:16:43;;;;;;;2.03;0.80;;;;;;;3.26;100.00;99061.78;5005287;28;20057;-75
2024/01/04 04:19:08;;;;;;;1.98;0.80;;;;;;;3.19;100.00;99071.81;4973009;28;20041;-74
2024/01/04 04:21:34;;;;;;;1.73;1.00;;;;;;;3.17;100.00;99073.09;4987748;28;20037;-74
2024/01/04 04:24:00;;;;;;;2.85;0.80;;;;;;;3.11;100.00;99080.22;4998780;28;20045;-76
2024/01/04 04:26:26;;;;;;;3.92;1.35;;;;;;;3.07;100.00;99083.69;5001648;28;20136;-76
2024/01/04 04:28:52;;;;;;;2.35;0.82;;;;;;;2.94;100.00;99085.75;5020497;28;20029;-74
2024/01/04 04:31:19;;;;;;;1.60;0.80;;;;;;;2.95;100.00;99084.69;5010613;28;20045;-75
2024/01/04 04:33:46;;;;;;;1.13;0.60;;;;;;;2.93;100.00;99093.94;4995167;28;20090;-73
2024/01/04 04:36:13;;;;;;;1.63;0.80;;;;;;;2.89;100.00;99108.72;4991678;28;20041;-74
2024/01/04 04:38:40;;;;;;;4.03;1.00;;;;;;;2.81;100.00;99107.38;5007948;28;20111;-76
2024/01/04 04:41:08;;;;;;;2.65;0.88;;;;;;;2.80;100.00;99105.00;4991198;28;20507;-76
2024/01/04 04:43:34;;;;;;;2.13;1.10;;;;;;;2.73;100.00;99107.88;5003204;28;20029;-75
2024/01/04 04:46:02;;;;;;;2.03;0.73;;;;;;;2.73;100.00;99121.09;5006425;28;20454;-74
2024/01/04 04:48:27;;;;;;;2.22;1.27;;;;;;;2.72;100.00;99120.31;5022394;28;20040;-75
2024/01/04 04:50:55;;;;;;;1.40;0.60;;;;;;;2.73;100.00;99126.38;5017674;28;20029;-72
2024/01/04 04:53:20;;;;;;;2.85;0.90;;;;;;;2.64;100.00;99130.56;4992750;28;20041;-75
2024/01/04 04:55:46;;;;;;;2.55;1.13;;;;;;;2.65;100.00;99132.16;5005564;28;20033;-74
2024/01/04 04:58:11;;;;;;;1.80;0.95;;;;;;;2.66;100.00;99150.41;5020975;28;20499;-74
2024/01/04 05:00:37;;;;;;;2.85;1.30;;;;;;;2.65;100.00;99135.59;4988522;28;20033;-74
2024/01/04 05:03:03;;;;;;;1.92;1.00;;;;;;;2.67;100.00;99151.19;4978747;28;20037;-75
2024/01/04 05:05:29;;;;;;;4.03;1.75;;;;;;;2.64;100.00;99149.88;5007089;28;20026;-73
2024/01/04 05:07:55;;;;;;;5.63;1.40;;;;;;;2.63;100.00;99163.31;4993037;28;20506;-76
2024/01/04 05:10:21;;;;;;;2.28;1.10;;;;;;;2.60;100.00;99158.56;5003347;28;20358;-74
2024/01/04 05:12:48;;;;;;;2.00;1.20;;;;;;;2.50;100.00;99167.22;4987220;28;20765;-73
2024/01/04 05:15:14;;;;;;;1.60;0.80;;;;;;;2.47;100.00;99176.44;5004532;28;20124;-76
2024/01/04 05:17:40;;;;;;;1.50;1.17;;;;;;;2.40;100.00;99189.09;5024089;28;20037;-74
2024/01/04 05:20:06;;;;;;;3.08;1.10;;;;;;;2.43;100.00;99183.28;5009794;28;20036;-75
2024/01/04 05:22:31;;;;;;;2.25;1.10;;;;;;;2.39;100.00;99197.28;5010403;28;20060;-77
2024/01/04 05:24:57;;;;;;;1.35;0.80;;;;;;;2.32;100.00;99194.84;4978041;28;20075;-76
2024/01/04 05:27:23;;;;;;;1.20;0.68;;;;;;;2.28;100.00;99206.94;5012264;28;20033;-76
2024/01/04 05:29:48;;;;;;;1.20;0.90;;;;;;;2.12;100.00;99223.72;5012604;28;20112;-75
2024/01/04 05:32:14;;;;;;;1.90;1.30;;;;;;;2.14;100.00;99230.34;5012162;28;20120;-76
2024/01/04 05:34:42;;;;;;;1.63;1.33;;;;;;;2.10;100.00;99241.66;5023330;28;20033;-76
2024/01/04 05:37:08;;;;;;;1.80;1.10;;;;;;;2.08;100.00;99238.47;4980828;28;20111;-75
2024/01/04 05:39:34;;;;;;;2.13;1.38;;;;;;;2.11;100.00;99248.56;4994825;28;20092;-75
2024/01/04 05:42:00;;;;;;;1.50;0.90;;;;;;;1.99;100.00;99248.69;5019772;28;20030;-76
2024/01/04 05:44:26;;;;;;;1.70;1.10;;;;;;;1.99;100.00;99269.03;5008466;28;20040;-76
2024/01/04 05:46:52;;;;;;;1.67;1.17;;;;;;;1.92;100.00;99275.31;5015367;28;20466;-75
2024/01/04 05:49:17;;;;;;;2.22;1.63;;;;;;;1.92;100.00;99280.59;5023201;28;20052;-75
2024/01/04 05:51:43;;;;;;;2.35;1.80;;;;;;;1.94;100.00;99282.16;5026724;28;20038;-74
2024/01/04 05:54:09;;;;;;;2.53;1.40;;;;;;;1.95;100.00;99294.31;4990962;28;20029;-75
2024/01/04 05:56:35;;;;;;;1.73;1.40;;;;;;;1.91;100.00;99301.97;4992932;28;20037;-75
2024/01/04 05:59:00;;;;;;;1.95;1.38;;;;;;;1.82;100.00;99306.84;5010613;28;20060;-75
2024/01/04 06:01:26;;;;;;;1.90;1.50;;;;;;;1.67;100.00;99309.31;4993672;28;20116;-75
2024/01/04 06:03:53;;;;;;;2.67;1.60;;;;;;;1.67;100.00;99316.44;5009285;28;20032;-74
2024/01/04 06:06:20;;;;;;;2.47;1.55;;;;;;;1.69;100.00;99325.69;5007988;28;20045;-75
2024/01/04 06:08:45;;;;;;;;;;;;;;;1.63;100.00;99330.16;5004400;28;20037;-74
2024/01/04 06:11:11;;;;;;;3.78;1.80;;;;;;;1.60;100.00;99345.66;5022736;28;19967;-75
2024/01/04 06:13:38;;;;;;;3.97;2.38;;;;;;;1.57;100.00;99362.00;5028947;28;20095;-75
2024/01/04 06:16:07;;;;;;;3.95;1.65;;;;;;;1.52;100.00;99370.63;4990085;28;20045;-73
2024/01/04 06:18:53;;;;;;;2.60;1.90;;;;;;;1.49;100.00;99370.31;5000285;28;20112;-75
2024/01/04 06:21:19;;;;;;;2.35;1.63;;;;;;;1.47;100.00;99385.59;4978991;28;20037;-75
2024/01/04 06:23:45;;;;;;;2.80;2.10;;;;;;;1.43;100.00;99395.03;4995489;28;20431;-75
2024/01/04 06:26:19;;;;;;;4.78;2.08;;;;;;;1.42;100.00;99398.69;4996067;28;20537;-76
2024/01/04 06:28:45;;;;;;;2.90;2.60;;;;;;;1.43;100.00;99419.59;5014963;28;20517;-74
2024/01/04 06:31:11;;;;;;;3.10;2.25;;;;;;;1.38;100.00;99427.41;5010224;28;20048;-75
2024/01/04 06:33:37;;;;;;;2.75;2.40;;;;;;;1.34;100.00;99437.63;5012413;28;20433;-74
2024/01/04 06:36:03;;;;;;;3.13;2.22;;;;;;;1.35;100.00;99441.91;5029378;28;20479;-74
2024/01/04 06:38:29;;;;;;;2.60;2.00;;;;;;;1.33;100.00;99445.78;5009475;28;20037;-74
2024/01/04 06:40:58;;;;;;;3.13;1.98;;;;;;;1.31;100.00;99443.41;5030373;28;20039;-74
2024/01/04 06:43:27;;;;;;;2.50;2.08;;;;;;;1.28;100.00;99454.41;5014640;28;20049;-75
2024/01/04 06:45:53;;;;;;;2.60;1.90;;;;;;;1.27;100.00;99458.09;5032087;28;20116;-75
2024/01/04 06:48:19;;;;;;;3.80;2.05;;;;;;;1.21;100.00;99459.06;5014168;28;20124;-75
2024/01/04 06:50:44;;;;;;;3.33;2.50;;;;;;;1.26;100.00;99477.59;5031131;28;20491;-74
2024/01/04 06:53:14;;;;;;;3.00;1.92;;;;;;;1.21;100.00;99474.88;5035219;28;20039;-74
2024/01/04 06:55:40;;;;;;;3.05;2.13;;;;;;;1.23;100.00;99479.94;5019562;28;20037;-74
2024/01/04 06:58:08;;;;;;;2.63;1.75;;;;;;;1.18;100.00;99496.47;5014471;28;20116;-72
2024/01/04 07:00:34;;;;;;;2.70;1.75;;;;;;;1.18;100.00;99495.66;4997441;28;20045;-74
2024/01/04 07:02:59;;;;;;;4.03;2.20;;;;;;;1.18;100.00;99487.75;5016494;28;20036;-74
2024/01/04 07:05:25;;;;;;;2.30;1.83;;;;;;;1.13;100.00;99506.91;5005962;28;20037;-74
2024/01/04 07:07:51;;;;;;;2.90;2.45;;;;;;;1.14;100.00;99511.16;4995207;28;20058;-73
2024/01/04 07:10:16;;;;;;;3.05;2.00;;;;;;;1.10;100.00;99510.03;5005097;28;20037;-75
2024/01/04 07:12:43;;;;;;;2.72;2.25;;;;;;;1.10;100.00;99525.88;5004004;28;20085;-74
2024/01/04 07:15:10;;;;;;;3.78;1.98;;;;;;;1.09;100.00;99535.63;5010464;28;20041;-74
2024/01/04 07:17:35;;;;;;;2.60;1.60;;;;;;;1.07;100.00;99537.66;5026955;28;20116;-74
2024/01/04 07:20:03;;;;;;;2.00;1.52;;;;;;;1.08;100.00;99544.56;5004120;28;20121;-73
2024/01/04 07:22:29;;;;;;;2.08;1.52;;;;;;;1.08;100.00;99546.38;5023234;28;20026;-74
2024/01/04 07:24:56;;;;;;;3.30;1.52;;;;;;;1.02;100.00;99558.69;5008729;28;20028;-73
2024/01/04 07:27:22;;;;;;;2.85;1.60;;;;;;;1.00;100.00;99571.28;5024777;28;20112;-75
2024/01/04 07:29:48;;;;;;;2.28;1.60;;;;;;;0.95;100.00;99562.47;5012320;28;20457;-74
2024/01/04 07:32:18;;;;;;;2.03;1.23;;;;;;;0.96;100.00;99583.34;5012164;28;20037;-74
2024/01/04 07:34:44;;;;;;;1.92;1.60;;;;;;;0.96;100.00;99587.81;5007599;28;20034;-73
2024/01/04 07:37:11;;;;;;;3.33;1.58;;;;;;;0.93;100.00;99598.81;4987759;28;20055;-74
2024/01/04 07:39:37;;;;;;;2.47;1.50;;;;;;;0.95;100.00;99607.28;5009952;28;20495;-73
2024/01/04 07:42:03;;;;;;;3.00;1.40;;;;;;;0.97;100.00;99613.94;5019418;28;20028;-74
2024/01/04 07:44:28;;;;;;;2.55;1.70;;;;;;;0.96;100.00;99608.91;4996607;28;20037;-74
2024/01/04 07:46:54;;;;;;;4.68;1.58;;;;;;;0.93;100.00;99625.97;5018095;28;20958;-73
2024/01/04 07:49:20;;;;;;;1.75;1.23;;;;;;;0.95;100.00;99631.00;4997543;28;20154;-74
2024/01/04 07:51:46;;;;;;;3.13;1.73;;;;;;;0.97;100.00;99642.16;5013081;28;20071;-75
2024/01/04 07:54:11;;;;;;;2.80;1.55;;;;;;;0.98;100.00;99644.53;5007742;28;20064;-75
2024/01/04 07:56:38;;;;;;;2.47;1.63;;;;;;;0.96;100.00;99651.91;4996769;28;20076;-76
2024/01/04 07:59:03;;;;;;;3.25;1.63;;;;;;;0.96;100.00;99662.44;4992916;28;20033;-75
2024/01/04 08:01:29;;;;;;;4.65;1.75;;;;;;;1.01;100.00;99667.00;5008382;28;20096;-75
2024/01/04 08:03:54;;;;;;;4.03;1.80;;;;;;;1.02;100.00;99679.16;5028473;28;20068;-74
2024/01/04 08:06:20;;;;;;;3.03;1.73;;;;;;;1.01;100.00;99683.63;4990567;28;20533;-75
2024/01/04 08:08:46;;;;;;;4.05;2.10;;;;;;;1.01;100.00;99701.28;5020443;28;20033;-74
2024/01/04 08:11:13;;;;;;;4.72;2.30;;;;;;;0.99;100.00;99701.50;5005990;28;20111;-73
2024/01/04 08:13:39;;;;;;;3.40;2.03;;;;;;;0.96;100.00;99709.09;5004769;28;20038;-74
2024/01/04 08:16:07;;;;;;;3.28;1.73;;;;;;;0.96;100.00;99715.16;4998170;28;20120;-76
2024/01/04 08:18:32;;;;;;;3.50;1.50;;;;;;;0.98;100.00;99725.47;5007920;28;20044;-72
2024/01/04 08:20:58;;;;;;;2.92;1.60;;;;;;;0.97;100.00;99737.06;5016206;28;20037;-74
2024/01/04 08:23:23;;;;;;;3.90;1.55;;;;;;;1.00;100.00;99742.66;4986291;28;20056;-73
2024/01/04 08:25:49;;;;;;;2.83;1.90;;;;;;;1.00;100.00;99747.94;5008555;28;20119;-75
2024/01/04 08:28:15;;;;;;;3.53;1.70;;;;;;;1.00;100.00;99749.75;5011555;28;20097;-74
2024/01/04 08:30:42;;;;;;;2.90;1.80;;;;;;;1.02;100.00;99761.72;4996190;28;20046;-76
2024/01/04 08:33:08;;;;;;;4.38;1.58;;;;;;;1.02;100.00;99768.81;4995889;28;20039;-75
2024/01/04 08:35:34;;;;;;;6.00;2.13;;;;;;;1.04;100.00;99774.66;5023872;28;20065;-75
2024/01/04 08:38:00;;;;;;;2.72;1.55;;;;;;;1.02;100.00;99784.63;4993459;28;20067;-73
2024/01/04 08:40:27;;;;;;;2.45;1.65;;;;;;;1.02;100.00;99793.34;5024484;28;20049;-72
2024/01/04 08:42:52;;;;;;;3.47;1.70;;;;;;;1.04;100.00;99798.38;5014887;28;20052;-73
2024/01/04 08:45:18;;;;;;;2.92;1.60;;;;;;;1.05;100.00;99803.41;5024706;28;20136;-74
2024/01/04 08:47:44;;;;;;;5.15;1.80;;;;;;;1.02;100.00;99814.44;5001569;28;20037;-74
2024/01/04 08:50:11;;;;;;;2.58;1.55;;;;;;;1.05;100.00;99811.31;4996641;28;20102;-73
2024/01/04 08:52:37;;;;;;;6.03;1.40;;;;;;;1.06;100.00;99806.84;5024771;28;20786;-73
2024/01/04 08:55:03;;;;;;;3.92;1.67;;;;;;;1.07;100.00;99821.63;5008746;28;20033;-74
2024/01/04 08:57:29;;;;;;;3.53;1.52;;;;;;;1.07;100.00;99822.44;5008466;28;20045;-74
2024/01/04 08:59:55;;;;;;;2.47;1.65;;;;;;;1.11;100.00;99832.53;5011093;28;20494;-74
2024/01/04 09:02:20;;;;;;;3.08;1.63;;;;;;;1.07;100.00;99837.47;5003216;28;20045;-73
2024/01/04 09:04:46;;;;;;;2.10;1.70;;;;;;;1.07;100.00;99837.47;5008688;28;20086;-75
2024/01/04 09:07:12;;;;;;;3.75;1.45;;;;;;;1.07;100.00;99840.91;5022988;28;20189;-74
2024/01/04 09:09:39;;;;;;;4.28;1.30;;;;;;;1.09;100.00;99856.50;5005018;28;20038;-75
2024/01/04 09:12:06;;;;;;;2.00;1.25;;;;;;;1.06;100.00;99859.59;5016960;28;20140;-73
2024/01/04 09:14:31;;;;;;;1.77;1.20;;;;;;;1.07;100.00;99869.91;4995620;28;20103;-74
2024/01/04 09:16:57;;;;;;;3.58;1.52;;;;;;;1.07;100.00;99869.09;5006212;28;20048;-73
2024/01/04 09:19:23;;;;;;;2.80;1.30;;;;;;;1.06;100.00;99878.06;5004293;28;20451;-74
2024/01/04 09:21:50;;;;;;;2.25;1.50;;;;;;;1.06;100.00;99885.97;4990764;28;20041;-75
2024/01/04 09:24:18;;;;;;;2.65;1.40;;;;;;;1.04;100.00;99890.66;5019656;28;20033;-74
2024/01/04 09:26:46;;;;;;;4.00;1.55;;;;;;;1.10;100.00;99900.31;5010915;28;20033;-71
2024/01/04 09:29:18;;;;;;;2.30;1.23;;;;;;;1.13;100.00;99904.31;5021290;28;20123;-73
2024/01/04 09:31:44;;;;;;;2.15;1.30;;;;;;;1.11;100.00;99907.19;4991733;28;20049;-74
2024/01/04 09:34:10;;;;;;;2.13;1.38;;;;;;;1.14;100.00;99919.91;5016802;28;20037;-74
2024/01/04 09:36:36;;;;;;;2.20;1.42;;;;;;;1.14;100.00;99919.09;4987371;28;20043;-73
2024/01/04 09:39:04;;;;;;;2.83;1.38;;;;;;;1.14;100.00;99917.25;5013682;28;20037;-73
2024/01/04 09:41:32;;;;;;;2.42;1.13;;;;;;;1.12;100.00;99929.88;5007440;28;20140;-74
2024/01/04 09:44:06;;;;;;;3.35;1.50;;;;;;;1.15;100.00;99939.16;5026465;28;20037;-72
2024/01/04 09:46:39;;;;;;;2.25;1.23;;;;;;;1.13;100.00;99947.31;5006663;28;20037;-74
2024/01/04 09:49:07;;;;;;;3.35;1.27;;;;;;;1.13;100.00;99963.13;5025886;28;20068;-74
2024/01/04 09:51:37;;;;;;;1.88;1.17;;;;;;;1.17;100.00;99971.41;5020897;28;20041;-73
2024/01/04 09:54:07;;;;;;;2.30;1.15;;;;;;;1.18;100.00;99976.44;5007378;28;20043;-74
2024/01/04 09:56:40;;;;;;;3.78;1.40;;;;;;;1.18;100.00;99979.09;5023535;28;20049;-74
2024/01/04 09:59:07;;;;;;;2.08;1.20;;;;;;;1.21;100.00;99975.19;4992232;28;20504;-73
2024/01/04 10:01:37;;;;;;;2.65;1.30;;;;;;;1.16;100.00;99989.06;4982927;28;20046;-75
2024/01/04 10:04:11;;;;;;;2.97;1.50;;;;;;;1.17;100.00;99995.94;5005604;28;20031;-74
2024/01/04 10:06:39;;;;;;;2.70;1.30;;;;;;;1.17;100.00;100001.22;4987015;28;20037;-74
2024/01/04 10:09:14;;;;;;;2.72;1.50;;;;;;;1.13;100.00;100010.59;4988892;28;20037;-73
2024/01/04 10:12:05;;;;;;;2.20;1.42;;;;;;;1.19;100.00;100014.97;4998443;28;20068;-75
2024/01/04 10:14:32;;;;;;;2.40;1.45;;;;;;;1.17;100.00;100022.31;4988697;28;20048;-74
2024/01/04 10:16:59;;;;;;;3.95;1.60;;;;;;;1.20;100.00;100028.97;5020624;28;20584;-74
2024/01/04 10:19:26;;;;;;;2.47;1.50;;;;;;;1.24;100.00;100030.94;5013177;28;20045;-73
2024/01/04 10:21:52;;;;;;;5.22;1.85;;;;;;;1.23;100.00;100031.97;5014430;28;20125;-75
2024/01/04 10:24:22;;;;;;;2.03;1.20;;;;;;;1.16;100.00;100041.81;5000518;28;20041;-72
2024/01/04 10:26:56;;;;;;;2.53;1.25;;;;;;;1.20;100.00;100044.78;5010620;28;20045;-74
2024/01/04 10:29:23;;;;;;;3.80;1.25;;;;;;;1.20;100.00;100048.22;5012280;28;20065;-74
2024/01/04 10:31:59;;;;;;;;;;;;;;;1.18;100.00;100058.22;5027528;28;20037;-74
2024/01/04 10:34:25;;;;;;;2.30;1.20;;;;;;;1.20;100.00;100071.16;4995967;28;20142;-72
2024/01/04 10:36:51;;;;;;;2.38;1.45;;;;;;;1.17;100.00;100069.78;4995611;28;20165;-75
2024/01/04 10:39:20;;;;;;;4.22;1.27;;;;;;;1.18;100.00;100074.03;5026094;28;20033;-74
2024/01/04 10:42:01;;;;;;;2.05;1.02;;;;;;;1.16;100.00;100078.75;5015334;28;20518;-75
2024/01/04 10:44:32;;;;;;;4.95;1.20;;;;;;;1.19;100.00;100070.38;5032142;28;20033;-73
2024/01/04 10:46:59;;;;;;;3.75;1.30;;;;;;;1.19;100.00;100075.66;5034668;28;20511;-74
2024/01/04 10:49:26;;;;;;;3.83;1.30;;;;;;;1.23;100.00;100081.28;4995476;28;20040;-74
2024/01/04 10:52:01;;;;;;;2.33;1.45;;;;;;;1.22;100.00;100087.56;5008200;28;20040;-73
2024/01/04 10:54:34;;;;;;;5.38;1.50;;;;;;;1.21;100.00;100092.03;4993024;28;20049;-73
2024/01/04 10:57:01;;;;;;;3.67;1.60;;;;;;;1.23;100.00;100094.47;5011992;28;20088;-73
2024/01/04 10:59:32;;;;;;;4.72;1.40;;;;;;;1.25;100.00;100101.13;5010101;28;20037;-73
2024/01/04 11:01:59;;;;;;;2.45;1.13;;;;;;;1.21;100.00;100107.88;5019271;28;20053;-72
2024/01/04 11:04:25;;;;;;;;;;;;;;;1.14;100.00;100107.16;5011751;28;20029;-72
2024/01/04 11:06:52;;;;;;;1.65;1.00;;;;;;;1.18;100.00;100112.78;5009755;28;19917;-75
2024/01/04 11:09:23;;;;;;;1.48;0.88;;;;;;;1.14;100.00;100111.63;5008666;28;20127;-74
2024/01/04 11:11:51;;;;;;;2.65;1.23;;;;;;;1.09;100.00;100114.94;5011679;28;20041;-75
2024/01/04 11:14:21;;;;;;;2.30;0.90;;;;;;;1.17;100.00;100122.53;5026914;28;20033;-73
2024/01/04 11:17:29;;;;;;;3.03;0.80;;;;;;;1.21;100.00;100122.88;5007187;28;20057;-73
2024/01/04 11:20:34;;;;;;;2.20;1.58;;;;;;;1.21;100.00;100123.69;4991650;28;20034;-72
2024/01/04 11:23:43;;;;;;;4.72;1.70;;;;;;;1.24;100.00;100127.72;5014318;28;20415;-74
2024/01/04 11:26:22;;;;;;;3.00;1.20;;;;;;;1.20;100.00;100140.56;5012027;28;20041;-72
2024/01/04 11:28:49;;;;;;;2.60;0.90;;;;;;;1.18;100.00;100137.34;5008897;28;20033;-73
2024/01/04 11:31:15;;;;;;;2.88;0.85;;;;;;;1.16;100.00;100141.25;5024638;28;20502;-73
2024/01/04 11:33:48;;;;;;;1.80;1.02;;;;;;;1.16;100.00;100147.31;5004615;28;20033;-74